createdAt,value
2018-03-26T00:00:58.621Z,58.08
2018-03-26T00:03:24.847Z,56.53
2018-03-26T00:05:51.084Z,56.37
2018-03-26T00:08:17.316Z,56.33
2018-03-26T00:10:43.552Z,49.20
2018-03-26T00:13:10.486Z,55.97
2018-03-26T00:15:36.751Z,49.42
2018-03-26T00:18:03.723Z,55.63
2018-03-26T00:20:29.941Z,53.65
2018-03-26T00:22:56.908Z,65.15
2018-03-26T00:25:23.876Z,52.40
2018-03-26T00:27:50.484Z,51.60
2018-03-26T00:30:16.804Z,49.60
2018-03-26T00:32:43.046Z,49.53
2018-03-26T00:35:09.292Z,39.47
2018-03-26T00:37:35.494Z,59.20
2018-03-26T00:40:01.709Z,54.50
2018-03-26T00:42:28.660Z,50.60
2018-03-26T00:44:55.626Z,46.33
2018-03-26T00:47:22.575Z,44.40
2018-03-26T00:49:49.532Z,38.17
2018-03-26T00:52:16.510Z,44.03
2018-03-26T00:54:42.726Z,46.00
2018-03-26T00:57:09.708Z,48.90
2018-03-26T00:59:35.929Z,43.72
2018-03-26T01:02:02.903Z,47.03
2018-03-26T01:04:29.122Z,44.67
2018-03-26T01:06:55.328Z,47.33
2018-03-26T01:09:21.553Z,45.58
2018-03-26T01:11:47.765Z,41.83
2018-03-26T01:14:14.007Z,43.80
2018-03-26T01:16:40.240Z,43.05
2018-03-26T01:19:07.481Z,47.70
2018-03-26T01:21:33.703Z,51.25
2018-03-26T01:23:59.926Z,53.55
2018-03-26T01:26:27.174Z,49.33
2018-03-26T01:28:53.417Z,45.38
2018-03-26T01:31:19.721Z,44.40
2018-03-26T01:33:46.674Z,49.67
2018-03-26T01:36:13.899Z,44.80
2018-03-26T01:38:40.129Z,46.95
2018-03-26T01:41:06.331Z,45.17
2018-03-26T01:43:33.297Z,48.92
2018-03-26T01:45:59.487Z,48.75
2018-03-26T01:48:25.731Z,43.78
2018-03-26T01:50:51.953Z,47.97
2018-03-26T01:53:18.195Z,52.67
2018-03-26T01:55:44.449Z,53.17
2018-03-26T01:58:10.685Z,45.92
2018-03-26T02:00:36.919Z,46.42
2018-03-26T02:03:03.177Z,39.35
2018-03-26T02:05:29.740Z,51.78
2018-03-26T02:07:55.944Z,42.62
2018-03-26T02:10:22.438Z,46.95
2018-03-26T02:12:48.757Z,44.85
2018-03-26T02:15:14.976Z,47.45
2018-03-26T02:17:41.195Z,43.85
2018-03-26T02:20:07.411Z,46.10
2018-03-26T02:22:34.396Z,46.20
2018-03-26T02:25:00.607Z,47.92
2018-03-26T02:27:27.555Z,42.83
2018-03-26T02:29:54.538Z,44.08
2018-03-26T02:32:20.821Z,50.15
2018-03-26T02:34:47.068Z,43.35
2018-03-26T02:37:13.279Z,37.85
2018-03-26T02:39:39.507Z,41.15
2018-03-26T02:42:05.746Z,46.50
2018-03-26T02:44:31.951Z,41.45
2018-03-26T02:46:58.920Z,42.83
2018-03-26T02:49:25.873Z,38.83
2018-03-26T02:51:52.107Z,41.67
2018-03-26T02:54:19.064Z,40.50
2018-03-26T02:56:45.726Z,45.63
2018-03-26T02:59:12.686Z,47.70
2018-03-26T03:01:38.898Z,53.40
2018-03-26T03:04:05.393Z,48.97
2018-03-26T03:06:31.618Z,45.45
2018-03-26T03:08:58.560Z,52.62
2018-03-26T03:11:25.538Z,52.22
2018-03-26T03:13:51.752Z,48.97
2018-03-26T03:16:18.729Z,46.40
2018-03-26T03:18:45.674Z,45.30
2018-03-26T03:21:12.654Z,46.15
2018-03-26T03:23:38.910Z,50.12
2018-03-26T03:26:05.134Z,46.37
2018-03-26T03:28:31.377Z,44.83
2018-03-26T03:30:57.645Z,43.08
2018-03-26T03:33:23.878Z,46.05
2018-03-26T03:35:50.324Z,39.20
2018-03-26T03:38:16.537Z,44.38
2018-03-26T03:40:42.752Z,49.45
2018-03-26T03:43:09.694Z,47.15
2018-03-26T03:45:35.934Z,47.35
2018-03-26T03:48:02.150Z,47.45
2018-03-26T03:50:28.381Z,49.75
2018-03-26T03:52:54.611Z,48.85
2018-03-26T03:55:21.210Z,47.97
2018-03-26T03:57:47.419Z,46.63
2018-03-26T04:00:13.620Z,48.63
2018-03-26T04:02:39.851Z,73.65
2018-03-26T04:05:06.818Z,54.75
2018-03-26T04:07:33.058Z,55.05
2018-03-26T04:10:00.013Z,46.78
2018-03-26T04:12:27.263Z,46.72
2018-03-26T04:14:54.208Z,47.38
2018-03-26T04:17:20.401Z,46.45
2018-03-26T04:19:46.646Z,41.40
2018-03-26T04:22:12.987Z,42.08
2018-03-26T04:24:40.202Z,48.03
2018-03-26T04:27:07.978Z,39.22
2018-03-26T04:29:34.225Z,51.45
2018-03-26T04:32:01.269Z,46.90
2018-03-26T04:34:27.491Z,43.38
2018-03-26T04:36:54.468Z,53.30
2018-03-26T04:39:20.761Z,53.00
2018-03-26T04:41:46.971Z,48.78
2018-03-26T04:44:13.943Z,38.00
2018-03-26T04:46:40.182Z,44.55
2018-03-26T04:49:06.424Z,50.33
2018-03-26T04:51:32.651Z,61.95
2018-03-26T04:53:59.630Z,53.05
2018-03-26T04:56:25.867Z,39.72
2018-03-26T04:58:52.095Z,47.70
2018-03-26T05:01:18.330Z,48.95
2018-03-26T05:03:44.563Z,52.78
2018-03-26T05:06:11.517Z,47.58
2018-03-26T05:08:38.503Z,45.92
2018-03-26T05:11:04.763Z,51.03
2018-03-26T05:13:30.986Z,45.83
2018-03-26T05:15:57.226Z,39.70
2018-03-26T05:18:23.442Z,45.75
2018-03-26T05:20:50.410Z,40.08
2018-03-26T05:23:16.609Z,37.08
2018-03-26T05:25:42.838Z,37.97
2018-03-26T05:28:09.066Z,44.15
2018-03-26T05:30:35.306Z,40.00
2018-03-26T05:33:01.510Z,38.15
2018-03-26T05:35:27.714Z,42.67
2018-03-26T05:37:53.948Z,36.38
2018-03-26T05:40:20.196Z,42.10
2018-03-26T05:42:46.490Z,45.80
2018-03-26T05:45:13.414Z,38.13
2018-03-26T05:47:40.631Z,41.33
2018-03-26T05:50:06.865Z,43.58
2018-03-26T05:52:33.074Z,38.33
2018-03-26T05:54:59.295Z,42.65
2018-03-26T05:57:26.253Z,37.15
2018-03-26T05:59:53.238Z,43.90
2018-03-26T06:02:19.469Z,45.35
2018-03-26T06:04:45.693Z,39.00
2018-03-26T06:07:12.691Z,42.50
2018-03-26T06:09:38.921Z,46.92
2018-03-26T06:12:05.154Z,41.10
2018-03-26T06:14:31.401Z,43.60
2018-03-26T06:17:09.872Z,45.90
2018-03-26T06:19:36.125Z,47.67
2018-03-26T06:22:02.401Z,51.88
2018-03-26T06:24:28.661Z,55.30
2018-03-26T06:26:54.905Z,54.95
2018-03-26T06:29:21.447Z,64.70
2018-03-26T06:31:47.715Z,57.80
2018-03-26T06:34:13.964Z,61.85
2018-03-26T06:37:00.977Z,51.55
2018-03-26T06:39:27.206Z,51.25
2018-03-26T06:41:53.814Z,54.95
2018-03-26T06:44:20.778Z,55.22
2018-03-26T06:46:47.760Z,52.30
2018-03-26T06:49:13.974Z,56.30
2018-03-26T06:51:40.935Z,55.33
2018-03-26T06:54:08.352Z,57.67
2018-03-26T06:56:34.567Z,55.70
2018-03-26T06:59:00.762Z,56.58
2018-03-26T07:01:26.986Z,50.83
2018-03-26T07:03:53.187Z,60.28
2018-03-26T07:06:19.666Z,61.97
2018-03-26T07:08:45.895Z,60.20
2018-03-26T07:11:12.103Z,55.75
2018-03-26T07:13:38.330Z,57.30
2018-03-26T07:16:04.550Z,54.53
2018-03-26T07:18:31.545Z,50.95
2018-03-26T07:20:57.767Z,49.60
2018-03-26T07:23:23.990Z,44.58
2018-03-26T07:25:50.954Z,47.67
2018-03-26T07:28:17.923Z,48.85
2018-03-26T07:30:44.897Z,51.22
2018-03-26T07:33:11.130Z,48.20
2018-03-26T07:35:37.356Z,55.53
2018-03-26T07:38:04.318Z,59.00
2018-03-26T07:40:30.566Z,55.53
2018-03-26T07:42:56.787Z,60.25
2018-03-26T07:45:23.781Z,56.90
2018-03-26T07:47:49.992Z,62.47
2018-03-26T07:50:16.959Z,52.55
2018-03-26T07:52:43.189Z,55.30
2018-03-26T07:55:10.134Z,68.22
2018-03-26T07:57:37.118Z,49.65
2018-03-26T08:00:03.388Z,53.08
2018-03-26T08:02:29.906Z,56.45
2018-03-26T08:04:56.130Z,58.55
2018-03-26T08:07:23.100Z,47.70
2018-03-26T08:09:49.334Z,50.15
2018-03-26T08:12:16.306Z,51.55
2018-03-26T08:14:42.815Z,52.15
2018-03-26T08:17:09.113Z,59.10
2018-03-26T08:19:36.022Z,61.75
2018-03-26T08:22:02.280Z,53.33
2018-03-26T08:24:28.494Z,59.28
2018-03-26T08:26:54.732Z,56.30
2018-03-26T08:29:20.966Z,52.58
2018-03-26T08:31:47.184Z,57.28
2018-03-26T08:34:14.175Z,55.35
2018-03-26T08:36:40.387Z,53.03
2018-03-26T08:39:06.609Z,60.78
2018-03-26T08:41:32.830Z,59.55
2018-03-26T08:43:59.070Z,54.97
2018-03-26T08:46:25.298Z,57.72
2018-03-26T08:48:52.262Z,61.97
2018-03-26T08:51:18.505Z,61.30
2018-03-26T08:53:44.725Z,56.65
2018-03-26T08:56:11.704Z,62.20
2018-03-26T08:58:37.918Z,63.53
2018-03-26T09:01:04.459Z,50.88
2018-03-26T09:03:30.691Z,57.88
2018-03-26T09:05:56.937Z,66.37
2018-03-26T09:08:23.174Z,57.45
2018-03-26T09:10:49.402Z,51.92
2018-03-26T09:13:15.684Z,55.63
2018-03-26T09:15:42.661Z,53.00
2018-03-26T09:18:08.935Z,59.58
2018-03-26T09:20:35.199Z,63.63
2018-03-26T09:23:01.397Z,54.20
2018-03-26T09:25:27.625Z,56.50
2018-03-26T09:27:53.890Z,56.00
2018-03-26T09:30:20.150Z,60.92
2018-03-26T09:32:46.389Z,59.03
2018-03-26T09:35:13.675Z,58.60
2018-03-26T09:37:39.913Z,57.42
2018-03-26T09:40:06.130Z,64.50
2018-03-26T09:42:32.351Z,58.33
2018-03-26T09:44:58.587Z,65.03
2018-03-26T09:47:24.807Z,59.63
2018-03-26T09:49:51.080Z,56.78
2018-03-26T09:52:17.345Z,56.72
2018-03-26T09:54:43.582Z,57.42
2018-03-26T09:57:09.833Z,52.85
2018-03-26T09:59:36.074Z,56.72
2018-03-26T10:02:02.377Z,58.50
2018-03-26T10:04:29.338Z,62.80
2018-03-26T10:06:56.313Z,58.75
2018-03-26T10:09:22.558Z,70.37
2018-03-26T10:11:48.794Z,64.25
2018-03-26T10:14:15.039Z,59.28
2018-03-26T10:16:41.255Z,64.72
2018-03-26T10:19:07.464Z,64.72
2018-03-26T10:21:33.705Z,68.35
2018-03-26T10:23:59.928Z,57.22
2018-03-26T10:26:27.002Z,67.35
2018-03-26T10:28:53.275Z,57.67
2018-03-26T10:31:19.514Z,58.60
2018-03-26T10:33:45.732Z,64.53
2018-03-26T10:36:11.982Z,59.20
2018-03-26T10:38:38.204Z,62.17
2018-03-26T10:41:04.440Z,58.22
2018-03-26T10:43:30.690Z,60.42
2018-03-26T10:45:56.928Z,58.50
2018-03-26T10:48:23.208Z,51.70
2018-03-26T10:50:49.454Z,53.83
2018-03-26T10:53:15.708Z,62.47
2018-03-26T10:55:41.931Z,48.77
2018-03-26T10:58:08.435Z,50.80
2018-03-26T11:00:34.713Z,54.17
2018-03-26T11:03:00.928Z,57.30
2018-03-26T11:05:27.181Z,56.33
2018-03-26T11:07:53.416Z,52.75
2018-03-26T11:10:19.660Z,58.13
2018-03-26T11:12:45.879Z,58.30
2018-03-26T11:15:12.115Z,61.07
2018-03-26T11:17:38.345Z,57.00
2018-03-26T11:20:05.378Z,68.07
2018-03-26T11:22:31.644Z,57.73
2018-03-26T11:24:58.623Z,57.38
2018-03-26T11:27:24.867Z,64.63
2018-03-26T11:29:51.135Z,60.70
2018-03-26T11:32:17.735Z,52.83
2018-03-26T11:34:44.708Z,55.87
2018-03-26T11:37:10.939Z,57.10
2018-03-26T11:39:38.295Z,54.27
2018-03-26T11:42:05.276Z,62.10
2018-03-26T11:44:31.483Z,59.40
2018-03-26T11:46:58.485Z,66.18
2018-03-26T11:49:24.729Z,58.87
2018-03-26T11:51:50.986Z,67.20
2018-03-26T11:54:17.211Z,69.57
2018-03-26T11:56:43.449Z,58.27
2018-03-26T11:59:09.697Z,59.60
2018-03-26T12:01:35.917Z,58.07
2018-03-26T12:04:02.164Z,57.00
2018-03-26T12:06:28.394Z,52.37
2018-03-26T12:08:54.697Z,59.97
2018-03-26T12:11:20.885Z,60.60
2018-03-26T12:13:47.116Z,63.30
2018-03-26T12:16:13.354Z,65.77
2018-03-26T12:18:39.573Z,60.57
2018-03-26T12:21:06.582Z,63.47
2018-03-26T12:23:45.042Z,63.42
2018-03-26T12:26:11.318Z,61.58
2018-03-26T12:28:49.768Z,58.05
2018-03-26T12:31:16.036Z,65.60
2018-03-26T12:33:54.481Z,47.45
2018-03-26T12:36:21.490Z,48.10
2018-03-26T12:38:47.694Z,56.78
2018-03-26T12:41:14.671Z,56.42
2018-03-26T12:43:41.632Z,58.25
2018-03-26T12:46:20.184Z,69.03
2018-03-26T12:48:46.428Z,57.95
2018-03-26T12:51:24.830Z,64.22
2018-03-26T12:53:51.080Z,62.42
2018-03-26T12:56:17.363Z,58.80
2018-03-26T12:58:47.472Z,51.90
2018-03-26T13:01:26.010Z,57.53
2018-03-26T13:03:52.258Z,59.72
2018-03-26T13:06:18.520Z,62.45
2018-03-26T13:08:44.784Z,58.38
2018-03-26T13:11:11.756Z,64.65
2018-03-26T13:13:38.024Z,56.30
2018-03-26T13:16:04.286Z,60.72
2018-03-26T13:18:30.862Z,55.12
2018-03-26T13:20:57.820Z,50.67
2018-03-26T13:25:58.636Z,54.40
2018-03-26T13:28:24.914Z,51.60
2018-03-26T13:30:51.187Z,45.22
2018-03-26T13:33:18.172Z,40.58
2018-03-26T13:35:44.483Z,37.55
2018-03-26T13:38:11.453Z,46.97
2018-03-26T13:40:38.435Z,44.38
2018-03-26T13:43:04.699Z,56.37
2018-03-26T13:45:30.933Z,44.20
2018-03-26T13:47:57.209Z,46.03
2018-03-26T13:50:23.469Z,50.63
2018-03-26T13:52:50.515Z,44.28
2018-03-26T13:55:16.735Z,42.13
2018-03-26T13:57:43.162Z,46.67
2018-03-26T14:00:09.443Z,47.08
2018-03-26T14:02:35.660Z,44.25
2018-03-26T14:05:02.336Z,45.33
2018-03-26T14:07:29.319Z,41.55
2018-03-26T14:10:17.567Z,46.03
2018-03-26T14:12:56.780Z,43.35
2018-03-26T14:15:35.683Z,41.72
2018-03-26T14:18:16.139Z,48.15
2018-03-26T14:23:33.535Z,89.57
2018-03-26T14:25:59.810Z,47.88
2018-03-26T14:28:26.085Z,50.12
2018-03-26T14:30:53.049Z,51.13
2018-03-26T14:33:19.300Z,47.30
2018-03-26T14:35:45.563Z,48.15
2018-03-26T14:38:11.815Z,43.72
2018-03-26T14:40:38.058Z,44.60
2018-03-26T14:43:05.078Z,49.53
2018-03-26T14:45:31.300Z,44.75
2018-03-26T14:47:58.271Z,43.87
2018-03-26T14:50:24.515Z,63.45
2018-03-26T14:52:50.748Z,41.83
2018-03-26T14:55:16.995Z,47.58
2018-03-26T14:57:43.234Z,43.53
2018-03-26T15:00:09.499Z,47.75
2018-03-26T15:02:35.740Z,59.40
2018-03-26T15:05:02.056Z,47.25
2018-03-26T15:07:28.290Z,38.20
2018-03-26T15:09:55.256Z,38.20
2018-03-26T15:12:21.540Z,40.85
2018-03-26T15:14:47.806Z,39.45
2018-03-26T15:17:14.052Z,42.75
2018-03-26T15:19:41.016Z,42.80
2018-03-26T15:22:08.214Z,40.80
2018-03-26T15:24:34.429Z,41.28
2018-03-26T15:27:01.393Z,40.20
2018-03-26T15:29:27.685Z,40.75
2018-03-26T15:31:53.928Z,44.85
2018-03-26T15:34:20.226Z,43.75
2018-03-26T15:36:46.498Z,42.28
2018-03-26T15:39:12.734Z,41.60
2018-03-26T15:41:38.968Z,38.92
2018-03-26T15:44:05.250Z,46.78
2018-03-26T15:46:31.540Z,43.38
2018-03-26T15:48:57.844Z,49.42
2018-03-26T15:51:24.850Z,44.50
2018-03-26T15:53:51.089Z,48.33
2018-03-26T15:56:17.344Z,37.47
2018-03-26T15:58:43.596Z,45.47
2018-03-26T16:01:09.815Z,46.15
2018-03-26T16:03:36.083Z,50.70
2018-03-26T16:06:02.337Z,43.95
2018-03-26T16:08:28.561Z,46.50
2018-03-26T16:10:54.832Z,45.80
2018-03-26T16:13:21.810Z,46.55
2018-03-26T16:15:48.056Z,55.45
2018-03-26T16:18:14.295Z,49.72
2018-03-26T16:20:40.557Z,44.35
2018-03-26T16:23:06.807Z,47.67
2018-03-26T16:25:33.789Z,47.00
2018-03-26T16:28:00.034Z,46.08
2018-03-26T16:30:26.325Z,47.33
2018-03-26T16:32:52.621Z,47.50
2018-03-26T16:35:19.619Z,56.85
2018-03-26T16:37:45.857Z,52.62
2018-03-26T16:40:12.144Z,49.72
2018-03-26T16:42:43.429Z,48.72
2018-03-26T16:45:10.459Z,55.22
2018-03-26T16:47:37.444Z,55.78
2018-03-26T16:50:03.795Z,58.30
2018-03-26T16:52:30.805Z,51.17
2018-03-26T16:54:57.082Z,55.97
2018-03-26T16:57:23.392Z,61.33
2018-03-26T16:59:49.655Z,62.65
2018-03-26T17:02:15.920Z,57.67
2018-03-26T17:04:42.948Z,61.17
2018-03-26T17:07:09.199Z,65.28
2018-03-26T17:09:35.434Z,63.30
2018-03-26T17:12:01.657Z,59.33
2018-03-26T17:14:27.901Z,66.45
2018-03-26T17:16:54.198Z,66.57
2018-03-26T17:19:20.486Z,71.57
2018-03-26T17:21:46.745Z,64.57
2018-03-26T17:24:12.996Z,58.65
2018-03-26T17:26:39.233Z,62.05
2018-03-26T17:29:05.492Z,66.15
2018-03-26T17:31:32.852Z,62.80
2018-03-26T17:33:59.854Z,64.45
2018-03-26T17:36:26.080Z,64.37
2018-03-26T17:38:52.615Z,70.40
2018-03-26T17:41:18.928Z,60.25
2018-03-26T17:43:45.188Z,64.68
2018-03-26T17:46:12.263Z,66.78
2018-03-26T17:48:38.547Z,62.75
2018-03-26T17:51:04.810Z,60.47
2018-03-26T17:53:31.108Z,57.47
2018-03-26T17:55:57.382Z,62.85
2018-03-26T17:58:23.664Z,62.67
2018-03-26T18:00:49.944Z,63.85
2018-03-26T18:03:16.168Z,66.20
2018-03-26T18:05:42.455Z,63.65
2018-03-26T18:08:09.490Z,63.50
2018-03-26T18:10:35.734Z,66.60
2018-03-26T18:13:02.335Z,68.22
2018-03-26T18:15:28.618Z,68.22
2018-03-26T18:17:54.972Z,62.38
2018-03-26T18:20:21.350Z,57.55
2018-03-26T18:22:47.746Z,60.20
2018-03-26T18:25:14.922Z,56.90
2018-03-26T18:27:41.801Z,61.45
2018-03-26T18:30:08.583Z,54.63
2018-03-26T18:32:35.157Z,63.60
2018-03-26T18:35:01.939Z,69.35
2018-03-26T18:37:30.115Z,60.97
2018-03-26T18:39:56.391Z,57.25
2018-03-26T18:42:24.599Z,63.50
2018-03-26T18:44:51.041Z,64.12
2018-03-26T18:47:17.366Z,68.93
2018-03-26T18:49:44.606Z,71.80
2018-03-26T18:52:11.638Z,71.70
2018-03-26T18:54:37.941Z,69.05
2018-03-26T18:57:05.846Z,74.57
2018-03-26T18:59:32.995Z,70.87
2018-03-26T19:01:59.310Z,73.93
2018-03-26T19:04:26.871Z,69.72
2018-03-26T19:06:54.130Z,70.53
2018-03-26T19:09:20.457Z,78.20
2018-03-26T19:11:46.876Z,76.70
2018-03-26T19:14:14.910Z,80.00
2018-03-26T19:16:41.293Z,83.12
2018-03-26T19:19:09.421Z,82.95
2018-03-26T19:21:36.903Z,85.50
2018-03-26T19:24:03.325Z,79.53
2018-03-26T19:26:31.079Z,86.18
2018-03-26T19:28:57.618Z,90.10
2018-03-26T19:31:23.960Z,90.15
2018-03-26T19:33:50.525Z,84.18
2018-03-26T19:36:18.756Z,86.50
2018-03-26T19:38:45.121Z,84.68
2018-03-26T19:41:12.246Z,82.10
2018-03-26T19:43:38.784Z,89.80
2018-03-26T19:46:05.150Z,80.55
2018-03-26T19:48:31.419Z,78.22
2018-03-26T19:50:59.169Z,80.07
2018-03-26T19:53:25.587Z,80.62
2018-03-26T19:55:51.922Z,74.62
2018-03-26T19:58:18.338Z,75.72
2018-03-26T20:00:44.730Z,77.05
2018-03-26T20:03:11.013Z,75.03
2018-03-26T20:05:38.934Z,71.22
2018-03-26T20:08:05.292Z,64.47
2018-03-26T20:10:31.721Z,72.80
2018-03-26T20:12:58.394Z,74.22
2018-03-26T20:15:25.432Z,68.93
2018-03-26T20:17:51.776Z,62.90
2018-03-26T20:20:18.080Z,72.90
2018-03-26T20:22:44.388Z,67.05
2018-03-26T20:25:10.673Z,70.75
2018-03-26T20:27:37.018Z,64.55
2018-03-26T20:30:04.058Z,79.65
2018-03-26T20:32:30.514Z,70.15
2018-03-26T20:34:56.814Z,67.22
2018-03-26T20:37:23.056Z,71.62
2018-03-26T20:39:49.313Z,64.57
2018-03-26T20:42:15.706Z,66.62
2018-03-26T20:44:43.165Z,65.75
2018-03-26T20:47:09.474Z,64.20
2018-03-26T20:49:36.461Z,61.63
2018-03-26T20:52:03.751Z,66.47
2018-03-26T20:54:30.347Z,62.72
2018-03-26T20:56:56.609Z,59.13
2018-03-26T20:59:24.031Z,64.43
2018-03-26T21:01:50.460Z,59.78
2018-03-26T21:04:16.697Z,59.40
2018-03-26T21:06:42.970Z,58.70
2018-03-26T21:09:09.232Z,61.80
2018-03-26T21:11:36.221Z,56.88
2018-03-26T21:14:02.656Z,58.42
2018-03-26T21:16:28.902Z,53.83
2018-03-26T21:18:55.159Z,62.10
2018-03-26T21:21:21.402Z,58.72
2018-03-26T21:23:47.631Z,52.33
2018-03-26T21:26:13.921Z,69.40
2018-03-26T21:28:40.257Z,60.28
2018-03-26T21:31:06.507Z,54.03
2018-03-26T21:33:32.744Z,51.15
2018-03-26T21:35:59.009Z,56.95
2018-03-26T21:38:25.997Z,54.13
2018-03-26T21:40:52.211Z,53.72
2018-03-26T21:43:18.460Z,48.72
2018-03-26T21:45:44.683Z,53.97
2018-03-26T21:48:11.667Z,72.47
2018-03-26T21:50:37.911Z,146.90
2018-03-26T21:53:04.150Z,112.82
2018-03-26T21:55:30.367Z,121.10
2018-03-26T21:57:56.623Z,67.00
2018-03-26T22:00:22.879Z,71.68
2018-03-26T22:02:49.124Z,62.17
2018-03-26T22:05:15.411Z,49.55
2018-03-26T22:07:41.643Z,58.70
2018-03-26T22:10:07.895Z,56.92
2018-03-26T22:12:34.141Z,53.70
2018-03-26T22:15:01.125Z,61.47
2018-03-26T22:17:27.376Z,54.78
2018-03-26T22:19:53.649Z,55.95
2018-03-26T22:22:19.848Z,60.88
2018-03-26T22:24:46.830Z,58.70
2018-03-26T22:27:13.066Z,50.12
2018-03-26T22:29:39.308Z,62.83
2018-03-26T22:32:05.552Z,65.25
2018-03-26T22:34:31.774Z,75.70
2018-03-26T22:36:58.010Z,71.00
2018-03-26T22:39:24.218Z,69.87
2018-03-26T22:41:51.184Z,73.47
2018-03-26T22:44:18.132Z,76.53
2018-03-26T22:46:45.102Z,82.32
2018-03-26T22:49:12.069Z,79.75
2018-03-26T22:51:38.282Z,81.78
2018-03-26T22:54:04.560Z,92.00
2018-03-26T22:56:30.776Z,88.65
2018-03-26T22:58:57.763Z,93.20
2018-03-26T23:01:23.982Z,97.32
2018-03-26T23:03:50.980Z,87.00
2018-03-26T23:06:17.203Z,90.10
2018-03-26T23:08:43.427Z,91.32
2018-03-26T23:11:09.676Z,98.95
2018-03-26T23:13:35.910Z,85.45
2018-03-26T23:16:02.131Z,85.20
2018-03-26T23:18:29.100Z,96.18
2018-03-26T23:20:56.094Z,110.53
2018-03-26T23:23:22.332Z,88.07
2018-03-26T23:25:48.572Z,106.90
2018-03-26T23:28:29.738Z,94.65
2018-03-26T23:30:55.974Z,103.60
2018-03-26T23:33:23.327Z,96.60
2018-03-26T23:35:50.278Z,95.93
2018-03-26T23:38:17.249Z,100.03
2018-03-26T23:40:44.228Z,96.53
2018-03-26T23:43:10.467Z,95.12
2018-03-26T23:45:36.703Z,94.80
2018-03-26T23:48:02.921Z,110.93
2018-03-26T23:50:29.909Z,108.03
2018-03-26T23:52:56.147Z,89.70
2018-03-26T23:55:22.367Z,100.30
2018-03-26T23:57:49.336Z,104.55
